Time;durP1;ratioP1;P1;durP2;ratioP2;P2;SDS_P1;SDS_P2;PMS_P1;PMS_P2;Temp;Humidity;BMP_temperature;BMP_pressure;BME280_temperature;BME280_humidity;BME280_pressure;Samples;Min_cycle;Max_cycle;Signal;HPM_P1;HPM_P2
2024/02/09 00:00:57;;;;;;;16.38;3.05;;;10.20;99.90;;;;;;5035009;28;20042;-63
2024/02/09 00:03:24;;;;;;;14.32;3.95;;;10.20;99.90;;;;;;5035400;28;20128;-64
2024/02/09 00:05:52;;;;;;;10.48;2.67;;;10.20;99.90;;;;;;5034318;28;20041;-64
2024/02/09 00:08:19;;;;;;;17.90;2.80;;;10.20;99.90;;;;;;5035091;28;20038;-63
2024/02/09 00:10:47;;;;;;;14.38;2.95;;;10.20;99.90;;;;;;5035132;28;20045;-63
2024/02/09 00:13:14;;;;;;;12.18;3.22;;;10.20;99.90;;;;;;5035344;28;20099;-63
2024/02/09 00:15:42;;;;;;;14.80;3.40;;;10.20;99.90;;;;;;5034903;28;20442;-63
2024/02/09 00:18:10;;;;;;;13.02;3.38;;;10.20;99.90;;;;;;5035188;28;20076;-63
2024/02/09 00:20:37;;;;;;;12.50;2.90;;;10.30;99.90;;;;;;5034907;28;20038;-63
2024/02/09 00:23:04;;;;;;;17.23;4.13;;;10.30;99.90;;;;;;5034947;28;20053;-63
2024/02/09 00:25:31;;;;;;;13.02;3.38;;;10.30;99.90;;;;;;5034797;28;20064;-64
2024/02/09 00:27:59;;;;;;;13.35;3.45;;;10.30;99.90;;;;;;5034694;28;20037;-62
2024/02/09 00:30:27;;;;;;;18.73;4.22;;;10.30;99.90;;;;;;5034518;28;20467;-62
2024/02/09 00:32:54;;;;;;;13.27;3.35;;;10.30;99.90;;;;;;5034727;28;20042;-63
2024/02/09 00:35:24;;;;;;;16.00;3.45;;;10.40;99.90;;;;;;5033431;28;20402;-63
2024/02/09 00:38:00;;;;;;;11.68;2.95;;;10.40;99.90;;;;;;5034622;28;20056;-63
2024/02/09 00:40:30;;;;;;;15.63;3.65;;;10.40;99.90;;;;;;5034700;28;20049;-63
2024/02/09 00:43:01;;;;;;;21.10;3.90;;;10.40;99.90;;;;;;5034731;28;20045;-63
2024/02/09 00:45:30;;;;;;;19.65;4.47;;;10.40;99.90;;;;;;5034401;28;20053;-62
2024/02/09 00:47:58;;;;;;;19.80;4.22;;;10.40;99.90;;;;;;5034707;28;20041;-63
2024/02/09 00:50:25;;;;;;;21.25;3.67;;;10.40;99.90;;;;;;5034636;28;20124;-63
2024/02/09 00:52:52;;;;;;;17.67;3.58;;;10.40;99.90;;;;;;5034223;28;20493;-63
2024/02/09 00:55:19;;;;;;;23.00;4.15;;;10.50;99.90;;;;;;5034208;28;20112;-63
2024/02/09 00:57:45;;;;;;;20.70;4.05;;;10.50;99.90;;;;;;5034352;28;20509;-63
2024/02/09 01:00:12;;;;;;;23.38;4.32;;;10.50;99.90;;;;;;5033194;28;20087;-63
2024/02/09 01:02:40;;;;;;;17.70;3.90;;;10.50;99.90;;;;;;5034525;28;20033;-63
2024/02/09 01:05:06;;;;;;;20.88;3.60;;;10.50;99.90;;;;;;5033971;28;20037;-63
2024/02/09 01:07:33;;;;;;;19.48;3.70;;;10.50;99.90;;;;;;5033990;28;20052;-63
2024/02/09 01:10:02;;;;;;;12.77;3.55;;;10.50;99.90;;;;;;5034161;28;20037;-63
2024/02/09 02:46:00;;;;;;;16.67;3.85;;;10.50;99.90;;;;;;5036890;28;20054;-63
2024/02/09 03:05:00;;;;;;;15.35;3.30;;;10.50;99.90;;;;;;5036332;28;20100;-63
2024/02/09 03:07:28;;;;;;;17.95;3.47;;;10.50;99.90;;;;;;5036282;28;20050;-64
2024/02/09 03:10:14;;;;;;;13.75;3.33;;;10.50;99.90;;;;;;5036380;28;20033;-63
2024/02/09 03:12:41;;;;;;;15.00;3.70;;;10.60;99.90;;;;;;5036500;28;20092;-63
2024/02/09 03:15:09;;;;;;;20.10;3.45;;;10.50;99.90;;;;;;5036359;28;20046;-64
2024/02/09 03:17:36;;;;;;;22.75;3.88;;;10.60;99.90;;;;;;5036251;28;20037;-64
2024/02/09 03:20:04;;;;;;;17.40;3.33;;;10.60;99.90;;;;;;5036101;28;20495;-64
2024/02/09 03:22:31;;;;;;;19.40;3.95;;;10.60;99.90;;;;;;5036244;28;20041;-64
2024/02/09 03:25:01;;;;;;;13.77;3.38;;;10.60;99.90;;;;;;5035965;28;20120;-64
2024/02/09 03:27:29;;;;;;;15.38;3.25;;;10.60;99.90;;;;;;5036464;28;20048;-64
2024/02/09 03:29:56;;;;;;;19.73;3.28;;;10.60;99.90;;;;;;5034592;28;20423;-63
2024/02/09 03:32:23;;;;;;;19.77;3.78;;;10.60;99.90;;;;;;5036175;28;20037;-64
2024/02/09 03:34:50;;;;;;;11.25;2.80;;;10.60;99.90;;;;;;5035700;28;20422;-64
2024/02/09 03:37:16;;;;;;;16.15;3.13;;;10.60;99.90;;;;;;5035804;28;20050;-64
2024/02/09 03:39:43;;;;;;;21.05;3.85;;;10.60;99.90;;;;;;5035741;28;20045;-64
2024/02/09 03:42:10;;;;;;;16.35;3.53;;;10.60;99.90;;;;;;5035919;28;20442;-64
2024/02/09 03:44:37;;;;;;;17.13;4.18;;;10.60;99.90;;;;;;5035654;28;20042;-64
2024/02/09 03:47:04;;;;;;;17.98;2.85;;;10.60;99.90;;;;;;5033989;28;20049;-64
2024/02/09 03:49:31;;;;;;;15.40;3.28;;;10.60;99.90;;;;;;5035441;28;20034;-63
2024/02/09 03:51:57;;;;;;;20.27;3.08;;;10.60;99.90;;;;;;5035893;28;20378;-63
2024/02/09 03:54:24;;;;;;;16.23;3.67;;;10.60;99.90;;;;;;5035586;28;20124;-64
2024/02/09 03:56:51;;;;;;;17.40;3.08;;;10.60;99.90;;;;;;5035883;28;20034;-63
2024/02/09 03:59:18;;;;;;;13.82;2.92;;;10.60;99.90;;;;;;5035592;28;20050;-64
2024/02/09 04:01:45;;;;;;;13.60;3.17;;;10.60;99.90;;;;;;5034194;28;20053;-64
2024/02/09 04:04:12;;;;;;;22.92;3.33;;;10.60;99.90;;;;;;5035470;28;20041;-64
2024/02/09 04:06:39;;;;;;;13.32;2.70;;;10.50;99.90;;;;;;5035371;28;20044;-63
2024/02/09 04:09:08;;;;;;;16.20;2.65;;;10.50;99.90;;;;;;5034824;28;20552;-63
2024/02/09 04:11:55;;;;;;;14.45;3.58;;;10.50;99.90;;;;;;5035502;28;20044;-63
2024/02/09 04:14:22;;;;;;;16.88;3.10;;;10.50;99.90;;;;;;5034956;28;20398;-63
2024/02/09 04:16:49;;;;;;;17.30;3.13;;;10.50;99.90;;;;;;5035262;28;20044;-63
2024/02/09 04:19:16;;;;;;;15.85;3.00;;;10.50;99.90;;;;;;5035002;28;20397;-64
2024/02/09 04:21:47;;;;;;;13.90;2.63;;;10.50;99.90;;;;;;5035285;28;20060;-63
2024/02/09 04:24:14;;;;;;;10.15;2.50;;;10.40;99.90;;;;;;5034759;28;20049;-63
2024/02/09 04:26:41;;;;;;;15.98;2.75;;;10.50;99.90;;;;;;5035125;28;20069;-64
2024/02/09 04:29:07;;;;;;;15.55;3.15;;;10.40;99.90;;;;;;5035032;28;20037;-64
2024/02/09 04:31:34;;;;;;;13.68;3.22;;;10.40;99.90;;;;;;5034978;28;20041;-63
2024/02/09 04:34:01;;;;;;;16.40;3.88;;;10.40;99.90;;;;;;5034625;28;20041;-64
2024/02/09 04:36:30;;;;;;;13.40;2.60;;;10.40;99.90;;;;;;5034748;28;20046;-63
2024/02/09 04:38:57;;;;;;;14.90;3.20;;;10.50;99.90;;;;;;5034570;28;20050;-63
2024/02/09 04:41:24;;;;;;;15.02;2.67;;;10.50;99.90;;;;;;5034429;28;20037;-63
2024/02/09 04:43:52;;;;;;;13.43;2.45;;;10.40;99.90;;;;;;5033274;28;20068;-64
2024/02/09 04:46:22;;;;;;;9.95;2.28;;;10.50;99.90;;;;;;5034768;28;20099;-64
2024/02/09 04:48:50;;;;;;;15.27;2.45;;;10.50;99.90;;;;;;5034639;28;20045;-64
2024/02/09 04:51:16;;;;;;;10.00;2.60;;;10.40;99.90;;;;;;5034134;28;20095;-64
2024/02/09 04:53:43;;;;;;;14.07;2.80;;;10.40;99.90;;;;;;5034422;28;20526;-64
2024/02/09 04:56:10;;;;;;;12.80;2.05;;;10.50;99.90;;;;;;5034743;28;20394;-64
2024/02/09 04:58:37;;;;;;;11.23;2.10;;;10.40;99.90;;;;;;5034532;28;20112;-63
2024/02/09 05:01:05;;;;;;;13.05;2.58;;;10.50;99.90;;;;;;5034386;28;20050;-63
2024/02/09 05:03:34;;;;;;;13.95;2.10;;;10.40;99.90;;;;;;5034141;28;20099;-64
2024/02/09 05:06:01;;;;;;;16.77;2.83;;;10.40;99.90;;;;;;5034208;28;20045;-64
2024/02/09 05:08:28;;;;;;;12.27;3.08;;;10.40;99.90;;;;;;5034509;28;20535;-64
2024/02/09 05:10:55;;;;;;;15.07;2.75;;;10.50;99.90;;;;;;5034312;28;20045;-64
2024/02/09 05:13:22;;;;;;;13.23;2.53;;;10.40;99.90;;;;;;5034077;28;20113;-63
2024/02/09 05:15:49;;;;;;;14.80;2.42;;;10.40;99.90;;;;;;5033208;28;20054;-63
2024/02/09 05:18:16;;;;;;;15.57;2.78;;;10.40;99.90;;;;;;5032937;28;20494;-63
2024/02/09 05:20:45;;;;;;;14.98;3.00;;;10.40;99.90;;;;;;5033143;28;20375;-63
2024/02/09 05:23:12;;;;;;;14.70;2.40;;;10.40;99.90;;;;;;5033385;28;20076;-63
2024/02/09 05:25:38;;;;;;;11.73;2.50;;;10.40;99.90;;;;;;5032677;28;20056;-63
2024/02/09 05:28:05;;;;;;;17.13;2.40;;;10.40;99.90;;;;;;5033172;28;20049;-63
2024/02/09 05:30:32;;;;;;;15.50;2.60;;;10.40;99.90;;;;;;5032964;28;20037;-63
2024/02/09 05:33:02;;;;;;;13.38;2.80;;;10.40;99.90;;;;;;5032998;28;20433;-62
2024/02/09 05:35:29;;;;;;;17.42;2.20;;;10.40;99.90;;;;;;5032948;28;20033;-63
2024/02/09 05:37:56;;;;;;;13.02;2.60;;;10.40;99.90;;;;;;5032597;28;20084;-63
2024/02/09 05:40:23;;;;;;;15.10;2.20;;;10.40;99.90;;;;;;5032958;28;20068;-62
2024/02/09 05:42:49;;;;;;;13.85;2.28;;;10.40;99.90;;;;;;5032928;28;20383;-63
2024/02/09 05:45:16;;;;;;;13.45;2.65;;;10.40;99.90;;;;;;5032715;28;20049;-64
2024/02/09 05:47:43;;;;;;;16.13;2.88;;;10.40;99.90;;;;;;5032572;28;20049;-63
2024/02/09 05:50:10;;;;;;;11.00;2.17;;;10.40;99.90;;;;;;5032834;28;20042;-63
2024/02/09 05:52:43;;;;;;;17.52;2.30;;;10.40;99.90;;;;;;5032995;28;20044;-64
2024/02/09 05:55:10;;;;;;;18.10;3.28;;;10.40;99.90;;;;;;5032370;28;20040;-64
2024/02/09 05:57:37;;;;;;;13.73;2.60;;;10.40;99.90;;;;;;5032833;28;20131;-65
2024/02/09 06:00:03;;;;;;;14.40;2.67;;;10.40;99.90;;;;;;5032882;28;20041;-65
2024/02/09 06:02:31;;;;;;;14.00;2.42;;;10.40;99.90;;;;;;5031307;28;20120;-65
2024/02/09 06:04:57;;;;;;;15.32;2.33;;;10.40;99.90;;;;;;5032504;28;20406;-64
2024/02/09 06:07:27;;;;;;;13.10;2.33;;;10.30;99.90;;;;;;5032363;28;20045;-64
2024/02/09 06:09:55;;;;;;;13.50;2.22;;;10.40;99.90;;;;;;5032503;28;20049;-64
2024/02/09 06:12:21;;;;;;;14.60;2.83;;;10.30;99.90;;;;;;5032631;28;20451;-64
2024/02/09 06:14:49;;;;;;;16.23;2.42;;;10.30;99.90;;;;;;4992445;28;1161550;-63
2024/02/09 06:17:16;;;;;;;15.60;2.33;;;10.30;99.90;;;;;;5032874;28;20079;-64
2024/02/09 06:19:43;;;;;;;12.20;1.98;;;10.30;99.90;;;;;;5033534;28;20441;-63
2024/02/09 06:22:12;;;;;;;14.65;2.60;;;10.30;99.90;;;;;;5033351;28;20046;-64
2024/02/09 06:24:39;;;;;;;12.40;1.95;;;10.30;99.90;;;;;;5033080;28;20103;-64
2024/02/09 06:27:06;;;;;;;12.52;2.20;;;10.30;99.90;;;;;;5033521;28;20048;-64
2024/02/09 06:29:33;;;;;;;11.55;2.88;;;10.30;99.90;;;;;;5032902;28;20088;-63
2024/02/09 06:31:59;;;;;;;12.52;2.33;;;10.30;99.90;;;;;;5033206;28;20052;-63
2024/02/09 06:34:26;;;;;;;12.20;2.20;;;10.30;99.90;;;;;;5031871;28;20079;-63
2024/02/09 06:36:54;;;;;;;10.13;2.15;;;10.30;99.90;;;;;;5033569;28;20379;-64
2024/02/09 06:39:22;;;;;;;9.75;2.13;;;10.30;99.90;;;;;;5015650;28;20371;-64
2024/02/09 06:41:49;;;;;;;10.27;1.98;;;10.30;99.90;;;;;;5032937;28;20438;-64
2024/02/09 06:44:18;;;;;;;7.97;1.80;;;10.30;99.90;;;;;;5032907;28;20049;-64
2024/02/09 06:46:45;;;;;;;7.38;1.52;;;10.20;99.90;;;;;;5032976;28;20042;-64
2024/02/09 06:49:12;;;;;;;7.25;1.58;;;10.20;99.90;;;;;;5031685;28;20037;-65
2024/02/09 06:51:41;;;;;;;6.35;1.08;;;10.20;99.90;;;;;;5032087;28;20107;-64
2024/02/09 06:54:08;;;;;;;4.22;0.88;;;10.10;99.90;;;;;;5033122;28;20041;-64
2024/02/09 06:56:35;;;;;;;4.90;0.98;;;10.10;99.90;;;;;;5033146;28;20105;-65
2024/02/09 06:59:06;;;;;;;4.75;0.82;;;10.10;99.90;;;;;;5031245;28;20140;-64
2024/02/09 07:01:34;;;;;;;3.28;0.82;;;10.10;99.90;;;;;;5033099;28;20046;-63
2024/02/09 07:04:01;;;;;;;6.57;1.63;;;10.10;99.90;;;;;;5032647;28;20149;-64
2024/02/09 07:06:28;;;;;;;7.75;1.75;;;10.10;99.90;;;;;;5031539;28;20053;-64
2024/02/09 07:08:56;;;;;;;9.20;1.80;;;10.20;99.90;;;;;;5032639;28;20049;-64
2024/02/09 07:11:23;;;;;;;11.30;1.88;;;10.20;99.90;;;;;;5031444;28;20128;-64
2024/02/09 07:13:50;;;;;;;8.40;1.75;;;10.20;99.90;;;;;;5033215;28;20084;-64
2024/02/09 07:16:17;;;;;;;8.15;1.73;;;10.20;99.90;;;;;;5036453;28;20105;-63
2024/02/09 07:18:43;;;;;;;11.85;2.10;;;10.30;99.90;;;;;;5034751;28;20041;-63
2024/02/09 07:21:10;;;;;;;15.43;2.60;;;10.30;99.90;;;;;;5035790;28;20045;-64
2024/02/09 07:23:37;;;;;;;12.82;2.17;;;10.30;99.90;;;;;;5034775;28;20045;-64
2024/02/09 07:26:04;;;;;;;16.95;2.50;;;10.40;99.90;;;;;;5036026;28;20045;-63
2024/02/09 07:28:31;;;;;;;17.77;2.50;;;10.40;99.90;;;;;;5036069;28;20046;-63
2024/02/09 07:30:57;;;;;;;15.05;2.45;;;10.40;99.90;;;;;;5035823;28;20041;-64
2024/02/09 07:33:24;;;;;;;18.15;3.05;;;10.40;99.90;;;;;;5036217;28;20113;-63
2024/02/09 07:35:51;;;;;;;13.75;2.15;;;10.40;99.90;;;;;;5036037;28;20040;-63
2024/02/09 07:38:18;;;;;;;13.82;2.35;;;10.40;99.90;;;;;;5035987;28;20048;-63
2024/02/09 07:40:45;;;;;;;9.98;2.47;;;10.40;99.90;;;;;;5036176;28;20526;-63
2024/02/09 07:43:12;;;;;;;12.13;1.80;;;10.40;99.90;;;;;;5036014;28;20434;-62
2024/02/09 07:45:39;;;;;;;13.82;2.40;;;10.40;99.90;;;;;;5035766;28;20052;-63
2024/02/09 07:48:05;;;;;;;9.98;1.70;;;10.40;99.90;;;;;;5034381;28;20100;-63
2024/02/09 07:50:34;;;;;;;8.95;1.60;;;10.40;99.90;;;;;;5035565;28;20459;-63
2024/02/09 07:53:01;;;;;;;7.57;1.83;;;10.50;99.90;;;;;;5035541;28;20033;-63
2024/02/09 07:55:28;;;;;;;11.32;1.80;;;10.50;99.90;;;;;;5035154;28;20038;-63
2024/02/09 07:57:55;;;;;;;8.55;1.63;;;10.50;99.90;;;;;;5035782;28;20107;-64
2024/02/09 08:00:22;;;;;;;9.75;1.90;;;10.50;99.90;;;;;;5035361;28;20124;-63
2024/02/09 08:02:49;;;;;;;9.02;1.90;;;10.50;99.90;;;;;;5035495;28;20088;-63
2024/02/09 08:05:18;;;;;;;14.75;2.35;;;10.50;99.90;;;;;;5035390;28;20364;-63
2024/02/09 08:07:46;;;;;;;15.38;2.55;;;10.50;99.90;;;;;;5035353;28;20132;-63
2024/02/09 08:10:13;;;;;;;14.18;2.83;;;10.50;99.90;;;;;;5031496;28;20046;-61
2024/02/09 08:12:40;;;;;;;12.25;2.72;;;10.60;99.90;;;;;;5033696;28;20099;-61
2024/02/09 08:15:07;;;;;;;13.10;2.20;;;10.60;99.90;;;;;;5034804;28;20050;-63
2024/02/09 08:17:33;;;;;;;10.35;2.67;;;10.60;99.90;;;;;;5031031;28;20057;-63
2024/02/09 08:20:00;;;;;;;14.60;2.13;;;10.50;99.90;;;;;;5052714;28;20068;-63
2024/02/09 08:22:31;;;;;;;13.15;2.10;;;10.50;99.90;;;;;;5046233;28;20049;-64
2024/02/09 08:24:58;;;;;;;13.18;2.03;;;10.50;99.90;;;;;;5045379;28;20060;-64
2024/02/09 08:27:25;;;;;;;11.73;1.92;;;10.50;99.90;;;;;;5033704;28;20052;-64
2024/02/09 08:29:55;;;;;;;12.50;2.15;;;10.50;99.90;;;;;;5034454;28;20050;-64
2024/02/09 08:32:22;;;;;;;12.27;2.17;;;10.60;99.90;;;;;;5019094;28;20545;-64
2024/02/09 08:34:50;;;;;;;12.65;2.00;;;10.60;99.90;;;;;;5029779;28;20037;-63
2024/02/09 08:37:17;;;;;;;10.85;1.92;;;10.60;99.90;;;;;;5033797;28;20045;-63
2024/02/09 08:39:45;;;;;;;11.13;2.20;;;10.60;99.90;;;;;;5034349;28;20046;-63
2024/02/09 08:42:12;;;;;;;14.68;2.50;;;10.50;99.90;;;;;;5034394;28;20081;-63
2024/02/09 08:44:39;;;;;;;13.68;2.53;;;10.50;99.90;;;;;;5034478;28;20045;-63
2024/02/09 08:47:06;;;;;;;13.25;2.15;;;10.60;99.90;;;;;;5034237;28;20434;-63
2024/02/09 08:49:32;;;;;;;16.55;2.63;;;10.60;99.90;;;;;;5032585;28;20096;-63
2024/02/09 08:51:59;;;;;;;15.35;2.85;;;10.60;99.90;;;;;;5034783;28;20092;-63
2024/02/09 08:54:26;;;;;;;15.43;2.90;;;10.70;99.90;;;;;;5034196;28;20111;-63
2024/02/09 08:56:53;;;;;;;15.80;2.92;;;10.70;99.90;;;;;;5034383;28;20041;-63
2024/02/09 08:59:20;;;;;;;19.10;3.00;;;10.70;99.90;;;;;;5034564;28;20041;-63
2024/02/09 09:01:47;;;;;;;21.10;3.72;;;10.70;99.90;;;;;;5033049;28;20047;-64
2024/02/09 09:04:14;;;;;;;21.65;3.50;;;10.70;99.90;;;;;;5034086;28;20459;-64
2024/02/09 09:06:42;;;;;;;20.42;3.72;;;10.70;99.90;;;;;;5034261;28;20049;-64
2024/02/09 09:09:11;;;;;;;20.23;3.42;;;10.80;99.90;;;;;;5032571;28;20108;-64
2024/02/09 09:11:38;;;;;;;12.35;2.70;;;10.70;99.90;;;;;;5032609;28;20042;-64
2024/02/09 09:14:05;;;;;;;14.23;2.92;;;10.80;99.90;;;;;;5033736;28;20044;-64
2024/02/09 09:16:32;;;;;;;10.27;2.35;;;10.80;99.90;;;;;;5034018;28;20045;-64
2024/02/09 09:19:04;;;;;;;13.07;2.25;;;10.80;99.90;;;;;;5032679;28;20041;-63
2024/02/09 09:21:31;;;;;;;14.75;2.90;;;10.80;99.90;;;;;;5033951;28;20041;-63
2024/02/09 09:24:01;;;;;;;15.93;3.05;;;10.80;99.90;;;;;;5033713;28;20045;-63
2024/02/09 09:26:30;;;;;;;17.98;3.22;;;10.90;99.90;;;;;;5033638;28;20045;-65
2024/02/09 09:28:57;;;;;;;15.27;3.15;;;11.00;99.90;;;;;;5033889;28;20045;-64
2024/02/09 09:31:25;;;;;;;20.83;3.42;;;11.00;99.90;;;;;;5033774;28;20363;-64
2024/02/09 09:33:52;;;;;;;20.70;3.58;;;11.10;99.90;;;;;;5033893;28;20461;-64
2024/02/09 09:36:19;;;;;;;20.60;3.08;;;11.10;99.90;;;;;;5033483;28;20151;-62
2024/02/09 09:38:46;;;;;;;19.70;3.33;;;11.20;99.90;;;;;;5032576;28;20049;-62
2024/02/09 09:41:13;;;;;;;19.33;3.78;;;11.20;99.90;;;;;;5033518;28;20045;-61
2024/02/09 09:43:40;;;;;;;21.73;3.58;;;11.10;99.90;;;;;;5033763;28;20080;-61
2024/02/09 09:46:08;;;;;;;17.60;3.78;;;11.10;99.90;;;;;;5033810;28;20059;-62
2024/02/09 09:48:35;;;;;;;23.80;3.28;;;11.20;99.90;;;;;;5034017;28;20041;-63
2024/02/09 09:51:02;;;;;;;20.63;3.15;;;11.20;99.90;;;;;;5032467;28;20136;-63
2024/02/09 09:53:28;;;;;;;19.45;3.33;;;11.20;99.90;;;;;;5032334;28;20069;-63
2024/02/09 09:55:59;;;;;;;16.90;3.63;;;11.30;99.90;;;;;;5032090;28;20053;-65
2024/02/09 09:58:27;;;;;;;15.10;2.90;;;11.30;99.90;;;;;;5033548;28;20038;-63
2024/02/09 10:00:53;;;;;;;16.35;3.03;;;11.40;99.90;;;;;;5033377;28;20072;-63
2024/02/09 10:03:20;;;;;;;17.52;2.88;;;11.50;99.90;;;;;;5032338;28;20128;-63
2024/02/09 10:05:47;;;;;;;14.68;3.05;;;11.40;99.90;;;;;;5033488;28;20044;-63
2024/02/09 10:08:14;;;;;;;15.13;2.58;;;11.40;99.90;;;;;;5033278;28;20049;-63
2024/02/09 10:10:41;;;;;;;16.40;3.10;;;11.40;99.90;;;;;;5033236;28;20048;-63
2024/02/09 10:13:11;;;;;;;14.98;3.47;;;11.50;99.90;;;;;;5033144;28;20037;-64
2024/02/09 10:15:41;;;;;;;12.43;2.45;;;11.60;99.90;;;;;;5032941;28;20576;-63
2024/02/09 10:18:10;;;;;;;12.40;2.53;;;11.60;99.90;;;;;;5033225;28;20037;-64
2024/02/09 10:20:38;;;;;;;15.55;2.63;;;11.60;99.90;;;;;;5033256;28;20049;-63
2024/02/09 10:23:05;;;;;;;11.13;2.20;;;11.50;99.90;;;;;;5033332;28;20467;-63
2024/02/09 10:25:32;;;;;;;11.43;1.98;;;11.60;99.90;;;;;;5032978;28;20077;-63
2024/02/09 10:27:59;;;;;;;11.95;2.33;;;11.60;99.90;;;;;;5032120;28;20487;-63
2024/02/09 10:30:26;;;;;;;6.30;2.08;;;11.50;99.90;;;;;;5033158;28;20379;-64
2024/02/09 10:32:52;;;;;;;8.82;1.70;;;11.50;99.90;;;;;;5033061;28;20056;-64
2024/02/09 10:35:19;;;;;;;10.02;2.13;;;11.40;99.90;;;;;;5032893;28;20048;-64
2024/02/09 10:37:47;;;;;;;10.07;1.75;;;11.30;99.90;;;;;;5032935;28;20041;-63
2024/02/09 10:40:14;;;;;;;8.05;1.60;;;11.40;99.90;;;;;;5033120;28;20450;-63
2024/02/09 10:42:40;;;;;;;8.23;1.60;;;11.40;99.90;;;;;;5032141;28;20048;-62
2024/02/09 10:45:10;;;;;;;8.55;1.60;;;11.40;99.90;;;;;;5032859;28;20046;-61
2024/02/09 10:47:47;;;;;;;7.93;1.95;;;11.40;99.90;;;;;;5033003;28;20041;-61
2024/02/09 10:50:14;;;;;;;9.85;1.70;;;11.40;99.90;;;;;;5035791;28;20042;-61
2024/02/09 10:52:44;;;;;;;9.85;2.10;;;11.40;99.90;;;;;;5036361;28;20065;-61
2024/02/09 10:55:14;;;;;;;10.32;2.15;;;11.30;99.90;;;;;;5036667;28;20033;-61
2024/02/09 10:57:42;;;;;;;11.63;2.47;;;11.40;99.90;;;;;;5036664;28;20092;-61
2024/02/09 11:00:10;;;;;;;10.30;2.22;;;11.30;99.90;;;;;;5035209;28;20037;-61
2024/02/09 11:02:37;;;;;;;14.45;2.22;;;11.40;99.90;;;;;;5036626;28;20092;-61
2024/02/09 11:05:04;;;;;;;19.95;2.78;;;11.50;99.90;;;;;;5035344;28;20053;-62
2024/02/09 11:07:31;;;;;;;17.27;2.63;;;11.50;99.90;;;;;;5036378;28;20043;-63
2024/02/09 11:10:01;;;;;;;14.90;2.60;;;11.50;99.90;;;;;;5036413;28;20490;-62
2024/02/09 11:12:28;;;;;;;16.23;3.17;;;11.50;99.90;;;;;;5035162;28;20446;-64
2024/02/09 11:14:54;;;;;;;18.40;2.90;;;11.50;99.90;;;;;;5036055;28;20045;-62
2024/02/09 11:17:21;;;;;;;11.90;2.58;;;11.60;99.90;;;;;;5036511;28;20067;-62
2024/02/09 11:19:48;;;;;;;19.40;2.95;;;11.60;99.90;;;;;;5036403;28;20037;-63
2024/02/09 11:22:17;;;;;;;13.38;2.72;;;11.60;99.90;;;;;;5036251;28;20045;-63
2024/02/09 11:24:44;;;;;;;15.32;3.50;;;11.70;99.90;;;;;;5036171;28;20061;-63
2024/02/09 11:27:11;;;;;;;14.38;3.55;;;11.70;99.90;;;;;;5036072;28;20455;-63
2024/02/09 11:29:38;;;;;;;17.67;2.95;;;11.70;99.90;;;;;;5035850;28;20124;-63
2024/02/09 11:32:05;;;;;;;13.40;2.88;;;11.70;99.90;;;;;;5035845;28;20048;-62
2024/02/09 11:34:33;;;;;;;21.50;3.13;;;11.70;99.90;;;;;;5035604;28;20068;-61
2024/02/09 11:37:01;;;;;;;16.65;4.07;;;11.80;99.90;;;;;;5035788;28;20128;-61
2024/02/09 11:39:28;;;;;;;18.98;2.72;;;11.80;99.90;;;;;;5035419;28;20041;-62
2024/02/09 11:41:55;;;;;;;23.10;4.10;;;11.70;99.90;;;;;;5035681;28;20083;-63
2024/02/09 11:44:22;;;;;;;16.17;3.42;;;11.80;99.90;;;;;;5035616;28;20045;-62
2024/02/09 11:46:49;;;;;;;23.02;4.00;;;11.80;99.90;;;;;;5034465;28;20073;-61
2024/02/09 11:49:16;;;;;;;18.90;3.42;;;11.90;99.90;;;;;;5035622;28;20100;-62
2024/02/09 11:51:43;;;;;;;18.70;3.25;;;11.80;99.90;;;;;;5035097;28;20095;-62
2024/02/09 11:54:10;;;;;;;18.08;3.50;;;11.90;99.90;;;;;;5035777;28;20099;-62
2024/02/09 11:56:36;;;;;;;19.00;3.55;;;12.00;99.90;;;;;;5035490;28;20069;-63
2024/02/09 11:59:04;;;;;;;20.77;4.03;;;12.00;99.90;;;;;;5034179;28;20041;-66
2024/02/09 12:01:30;;;;;;;20.38;3.55;;;12.10;99.90;;;;;;5035345;28;20057;-63
2024/02/09 12:03:57;;;;;;;16.75;3.97;;;12.30;99.90;;;;;;5035274;28;20124;-63
2024/02/09 12:06:24;;;;;;;18.58;3.35;;;12.30;99.90;;;;;;5035397;28;20048;-64
2024/02/09 12:08:51;;;;;;;16.90;3.20;;;12.40;99.90;;;;;;5035642;28;20383;-64
2024/02/09 12:11:18;;;;;;;18.50;3.65;;;12.50;99.90;;;;;;5035151;28;20034;-64
2024/02/09 12:13:45;;;;;;;15.15;4.15;;;12.40;99.90;;;;;;5035015;28;20044;-64
2024/02/09 12:16:12;;;;;;;14.55;2.97;;;12.40;99.90;;;;;;5035078;28;20045;-64
2024/02/09 12:18:39;;;;;;;18.88;3.50;;;12.50;99.90;;;;;;5034800;28;20033;-63
2024/02/09 12:21:06;;;;;;;17.42;3.92;;;12.50;99.90;;;;;;5034720;28;20049;-63
2024/02/09 12:23:34;;;;;;;19.02;3.58;;;12.50;99.90;;;;;;5034629;28;20386;-63
2024/02/09 12:26:05;;;;;;;18.50;3.30;;;12.50;99.90;;;;;;5034934;28;20409;-63
2024/02/09 12:28:33;;;;;;;17.63;2.97;;;12.60;99.90;;;;;;5035156;28;20049;-64
2024/02/09 12:31:00;;;;;;;16.58;3.80;;;12.50;99.90;;;;;;5035060;28;20064;-64
2024/02/09 12:33:27;;;;;;;12.23;2.47;;;12.60;99.90;;;;;;5035140;28;20360;-65
2024/02/09 12:35:54;;;;;;;22.73;3.60;;;12.50;99.90;;;;;;5034180;28;20080;-62
2024/02/09 12:38:21;;;;;;;19.55;3.58;;;12.50;99.90;;;;;;5034224;28;20037;-62
2024/02/09 12:40:48;;;;;;;17.58;3.65;;;12.50;99.90;;;;;;5034211;28;20041;-62
2024/02/09 12:43:19;;;;;;;19.48;3.45;;;12.50;99.90;;;;;;5034262;28;20463;-62
2024/02/09 12:45:47;;;;;;;19.75;3.50;;;12.50;99.90;;;;;;5034356;28;20078;-64
2024/02/09 12:48:20;;;;;;;19.33;3.40;;;12.60;99.90;;;;;;5033018;28;20042;-64
2024/02/09 12:50:52;;;;;;;16.20;3.95;;;12.50;99.90;;;;;;5033006;28;20049;-65
2024/02/09 12:53:19;;;;;;;15.25;2.83;;;12.60;99.90;;;;;;5034357;28;20399;-64
2024/02/09 12:55:46;;;;;;;20.10;3.20;;;12.50;99.90;;;;;;5034168;28;20041;-65
2024/02/09 12:58:13;;;;;;;16.45;3.50;;;12.60;99.90;;;;;;5034379;28;20044;-65
2024/02/09 13:00:41;;;;;;;17.77;3.42;;;12.60;99.90;;;;;;5034403;28;20125;-66
2024/02/09 13:03:08;;;;;;;17.88;3.13;;;12.50;99.90;;;;;;5033356;28;20130;-63
2024/02/09 13:05:34;;;;;;;18.15;3.47;;;12.50;99.90;;;;;;5034317;28;20100;-61
2024/02/09 13:08:01;;;;;;;17.77;3.70;;;12.50;99.90;;;;;;5034319;28;20065;-62
2024/02/09 13:10:28;;;;;;;20.83;3.83;;;12.60;99.90;;;;;;5034422;28;20372;-62
2024/02/09 13:12:55;;;;;;;14.18;2.85;;;12.60;99.90;;;;;;5033612;28;20071;-62
2024/02/09 13:15:28;;;;;;;16.98;3.65;;;12.60;99.90;;;;;;5033616;28;20052;-62
2024/02/09 13:17:55;;;;;;;18.85;3.90;;;12.60;99.90;;;;;;5034021;28;20120;-63
2024/02/09 13:20:24;;;;;;;19.33;3.40;;;12.70;99.90;;;;;;5033844;28;20040;-62
2024/02/09 13:22:55;;;;;;;22.35;3.92;;;12.70;99.90;;;;;;5033749;28;20044;-63
2024/02/09 13:25:23;;;;;;;17.92;3.63;;;12.70;99.90;;;;;;5033964;28;20038;-62
2024/02/09 13:27:50;;;;;;;17.13;3.47;;;12.70;99.90;;;;;;5033952;28;20041;-63
2024/02/09 13:30:17;;;;;;;19.45;3.70;;;12.70;99.90;;;;;;5033824;28;20045;-65
2024/02/09 13:32:44;;;;;;;21.05;3.65;;;12.60;99.90;;;;;;5033786;28;20485;-65
2024/02/09 13:35:13;;;;;;;13.52;3.25;;;12.60;99.90;;;;;;5033720;28;20425;-65
2024/02/09 13:37:44;;;;;;;19.80;3.95;;;12.60;99.90;;;;;;5033953;28;20053;-65
2024/02/09 13:40:15;;;;;;;15.48;3.10;;;12.60;99.90;;;;;;5033629;28;20100;-65
2024/02/09 13:42:45;;;;;;;20.77;3.53;;;12.50;99.90;;;;;;5033981;28;20072;-66
2024/02/09 13:45:13;;;;;;;19.52;3.17;;;12.50;99.90;;;;;;5033307;28;20390;-65
2024/02/09 13:47:39;;;;;;;15.10;3.30;;;12.60;99.90;;;;;;5033895;28;20092;-66
2024/02/09 13:50:07;;;;;;;17.77;3.60;;;12.50;99.90;;;;;;5033527;28;20069;-66
2024/02/09 13:52:34;;;;;;;20.63;3.60;;;12.50;99.90;;;;;;5033486;28;20470;-62
2024/02/09 13:55:01;;;;;;;16.35;3.35;;;12.50;99.90;;;;;;5033354;28;20128;-63
2024/02/09 13:57:27;;;;;;;21.38;3.15;;;12.50;99.90;;;;;;5033460;28;20425;-66
2024/02/09 13:59:57;;;;;;;20.52;4.05;;;12.60;99.90;;;;;;5033266;28;20060;-64
2024/02/09 14:02:24;;;;;;;19.45;3.45;;;12.70;99.90;;;;;;5033322;28;20067;-64
2024/02/09 14:04:50;;;;;;;19.85;3.88;;;12.70;99.90;;;;;;5032885;28;20053;-63
2024/02/09 14:07:17;;;;;;;18.63;3.63;;;12.80;99.90;;;;;;5033269;28;20072;-63
2024/02/09 14:09:44;;;;;;;16.98;3.13;;;12.80;99.90;;;;;;5033361;28;20483;-64
2024/02/09 14:12:14;;;;;;;17.10;2.95;;;12.80;99.90;;;;;;5033077;28;20112;-62
2024/02/09 14:14:41;;;;;;;14.32;3.30;;;12.80;99.90;;;;;;5032650;28;20050;-61
2024/02/09 14:17:07;;;;;;;13.57;2.97;;;12.70;99.90;;;;;;5031930;28;20045;-61
2024/02/09 14:19:34;;;;;;;18.38;3.63;;;12.70;99.90;;;;;;5033302;28;20099;-62
2024/02/09 14:22:03;;;;;;;14.73;2.83;;;12.70;99.90;;;;;;5031735;28;20056;-62
2024/02/09 14:24:30;;;;;;;17.35;2.97;;;12.70;99.90;;;;;;5035001;28;20045;-61
2024/02/09 14:26:58;;;;;;;18.90;4.38;;;12.70;99.90;;;;;;5037307;28;20046;-62
2024/02/09 14:29:27;;;;;;;18.23;3.28;;;12.70;99.90;;;;;;5037215;28;20040;-62